createdAt,value
2023-05-22T00:02:44.544Z,5.55
2023-05-22T00:05:48.334Z,5.62
2023-05-22T00:08:50.604Z,5.45
2023-05-22T00:11:53.246Z,5.35
2023-05-22T00:14:55.450Z,5.80
2023-05-22T00:17:58.876Z,5.47
2023-05-22T00:21:01.080Z,5.65
2023-05-22T00:24:04.133Z,5.30
2023-05-22T00:27:06.420Z,5.97
2023-05-22T00:30:09.546Z,5.60
2023-05-22T00:33:12.382Z,5.53
2023-05-22T00:36:15.437Z,5.80
2023-05-22T00:39:17.603Z,5.62
2023-05-22T00:42:21.376Z,5.62
2023-05-22T00:45:24.544Z,5.20
2023-05-22T00:48:27.650Z,5.90
2023-05-22T00:51:30.067Z,5.20
2023-05-22T00:54:33.046Z,5.15
2023-05-22T00:57:38.343Z,5.10
2023-05-22T01:00:42.670Z,5.80
2023-05-22T01:03:46.010Z,5.22
2023-05-22T01:06:48.875Z,5.35
2023-05-22T01:09:52.663Z,5.80
2023-05-22T01:13:05.655Z,5.22
2023-05-22T01:16:41.815Z,4.70
2023-05-22T01:19:54.115Z,4.22
2023-05-22T01:23:44.731Z,4.68
2023-05-22T01:27:11.790Z,4.30
2023-05-22T01:30:32.440Z,4.40
2023-05-22T01:33:54.869Z,4.37
2023-05-22T01:36:58.130Z,4.57
2023-05-22T01:40:02.807Z,4.32
2023-05-22T01:43:05.093Z,4.72
2023-05-22T01:46:07.743Z,4.03
2023-05-22T01:49:10.447Z,4.10
2023-05-22T01:52:22.559Z,4.78
2023-05-22T01:55:35.180Z,3.70
2023-05-22T01:58:44.782Z,4.10
2023-05-22T02:01:50.601Z,4.30
2023-05-22T02:04:58.711Z,3.87
2023-05-22T02:08:02.190Z,3.70
2023-05-22T02:11:05.813Z,4.40
2023-05-22T02:14:09.242Z,4.30
2023-05-22T02:17:12.364Z,4.53
2023-05-22T02:20:15.827Z,4.03
2023-05-22T02:23:18.523Z,4.53
2023-05-22T02:26:21.242Z,4.05
2023-05-22T02:29:24.904Z,3.78
2023-05-22T02:32:28.435Z,3.75
2023-05-22T02:35:31.049Z,3.70
2023-05-22T02:38:33.280Z,4.10
2023-05-22T02:41:36.253Z,4.15
2023-05-22T02:44:38.527Z,3.85
2023-05-22T02:47:41.117Z,4.20
2023-05-22T02:50:44.273Z,4.30
2023-05-22T02:53:46.837Z,3.65
2023-05-22T02:56:49.362Z,4.05
2023-05-22T02:59:52.567Z,4.15
2023-05-22T03:02:54.894Z,4.35
2023-05-22T03:05:58.535Z,4.43
2023-05-22T03:09:01.216Z,4.32
2023-05-22T03:12:05.478Z,4.40
2023-05-22T03:15:09.250Z,4.10
2023-05-22T03:18:13.158Z,4.32
2023-05-22T03:21:15.657Z,4.07
2023-05-22T03:24:18.177Z,4.18
2023-05-22T03:27:20.481Z,4.30
2023-05-22T03:30:23.214Z,4.30
2023-05-22T03:33:25.978Z,4.43
2023-05-22T03:36:31.136Z,3.58
2023-05-22T03:39:35.509Z,3.42
2023-05-22T03:42:39.205Z,4.03
2023-05-22T03:45:43.244Z,4.15
2023-05-22T03:48:46.753Z,4.12
2023-05-22T03:51:48.977Z,3.87
2023-05-22T03:54:51.636Z,3.78
2023-05-22T03:57:53.865Z,3.70
2023-05-22T04:00:58.588Z,3.95
2023-05-22T04:04:02.072Z,3.70
2023-05-22T04:07:08.984Z,3.78
2023-05-22T04:10:11.906Z,3.47
2023-05-22T04:13:17.587Z,3.03
2023-05-22T04:16:21.681Z,3.83
2023-05-22T04:19:24.015Z,3.47
2023-05-22T04:22:27.545Z,3.55
2023-05-22T04:25:30.126Z,3.37
2023-05-22T04:28:32.876Z,3.17
2023-05-22T04:31:35.221Z,3.80
2023-05-22T04:34:37.791Z,3.45
2023-05-22T04:37:45.520Z,3.80
2023-05-22T04:40:48.392Z,3.78
2023-05-22T04:43:50.561Z,3.35
2023-05-22T04:46:57.283Z,4.18
2023-05-22T04:50:00.347Z,3.78
2023-05-22T04:53:04.334Z,3.50
2023-05-22T04:56:07.324Z,3.70
2023-05-22T04:59:24.055Z,4.10
2023-05-22T05:02:26.461Z,3.85
2023-05-22T05:05:29.131Z,3.92
2023-05-22T05:08:31.613Z,3.45
2023-05-22T05:11:34.966Z,4.15
2023-05-22T05:14:37.306Z,3.78
2023-05-22T05:17:39.886Z,3.85
2023-05-22T05:20:43.183Z,3.97
2023-05-22T05:23:45.824Z,3.72
2023-05-22T05:26:51.094Z,4.03
2023-05-22T05:29:54.466Z,3.83
2023-05-22T05:32:57.026Z,3.75
2023-05-22T05:35:59.724Z,3.50
2023-05-22T05:39:02.070Z,3.92
2023-05-22T05:42:07.777Z,3.70
2023-05-22T05:45:10.952Z,3.65
2023-05-22T05:48:13.665Z,3.67
2023-05-22T05:51:16.315Z,3.80
2023-05-22T05:54:20.163Z,4.00
2023-05-22T05:57:23.102Z,3.60
2023-05-22T06:00:27.612Z,3.50
2023-05-22T06:03:30.775Z,4.35
2023-05-22T06:06:36.904Z,4.82
2023-05-22T06:09:39.667Z,4.80
2023-05-22T06:12:42.550Z,4.20
2023-05-22T06:15:45.147Z,4.30
2023-05-22T06:18:48.452Z,3.65
2023-05-22T06:21:52.212Z,4.50
2023-05-22T06:24:55.757Z,4.47
2023-05-22T06:27:59.093Z,3.42
2023-05-22T06:31:01.821Z,3.72
2023-05-22T06:34:04.726Z,3.58
2023-05-22T06:37:07.255Z,3.83
2023-05-22T06:40:11.093Z,3.78
2023-05-22T06:43:13.919Z,3.87
2023-05-22T06:46:18.805Z,3.87
2023-05-22T06:49:21.328Z,3.70
2023-05-22T06:52:25.052Z,4.00
2023-05-22T06:55:27.554Z,4.10
2023-05-22T06:58:31.130Z,3.95
2023-05-22T07:01:33.640Z,3.50
2023-05-22T07:04:36.797Z,3.83
2023-05-22T07:07:40.568Z,4.07
2023-05-22T07:10:43.508Z,3.50
2023-05-22T07:13:45.970Z,3.90
2023-05-22T07:16:48.682Z,3.60
2023-05-22T07:19:52.826Z,3.40
2023-05-22T07:22:56.211Z,3.42
2023-05-22T07:25:58.672Z,3.50
2023-05-22T07:29:02.978Z,4.00
2023-05-22T07:32:05.840Z,3.42
2023-05-22T07:35:10.649Z,4.18
2023-05-22T07:38:13.139Z,3.20
2023-05-22T07:41:18.220Z,4.03
2023-05-22T07:44:20.977Z,3.47
2023-05-22T07:47:23.670Z,4.15
2023-05-22T07:50:27.036Z,3.75
2023-05-22T07:53:30.021Z,3.40
2023-05-22T07:56:32.711Z,3.50
2023-05-22T07:59:35.868Z,3.72
2023-05-22T08:02:38.215Z,3.30
2023-05-22T08:05:41.089Z,4.93
2023-05-22T08:08:43.445Z,3.97
2023-05-22T08:11:46.010Z,3.58
2023-05-22T08:14:48.206Z,3.95
2023-05-22T08:17:50.832Z,4.05
2023-05-22T08:20:54.932Z,3.58
2023-05-22T08:23:57.791Z,3.50
2023-05-22T08:27:00.923Z,3.60
2023-05-22T08:30:06.226Z,3.05
2023-05-22T08:33:08.489Z,3.78
2023-05-22T08:36:11.356Z,3.75
2023-05-22T08:39:14.410Z,3.60
2023-05-22T08:42:17.562Z,3.47
2023-05-22T08:45:19.880Z,3.45
2023-05-22T08:48:23.739Z,3.83
2023-05-22T08:51:29.097Z,3.62
2023-05-22T08:54:33.447Z,4.10
2023-05-22T08:57:36.521Z,3.75
2023-05-22T09:00:39.366Z,3.35
2023-05-22T09:03:42.420Z,3.65
2023-05-22T09:06:47.596Z,3.70
2023-05-22T09:09:49.996Z,3.80
2023-05-22T09:13:07.770Z,3.55
2023-05-22T09:16:12.192Z,3.42
2023-05-22T09:19:15.983Z,3.00
2023-05-22T09:22:18.872Z,3.42
2023-05-22T09:25:21.802Z,3.42
2023-05-22T09:28:24.663Z,3.45
2023-05-22T09:31:28.943Z,3.58
2023-05-22T09:34:32.911Z,3.53
2023-05-22T09:37:36.690Z,3.72
2023-05-22T09:40:40.532Z,3.50
2023-05-22T09:43:50.686Z,3.47
2023-05-22T09:46:55.549Z,3.28
2023-05-22T09:49:59.188Z,3.50
2023-05-22T09:53:03.620Z,3.65
2023-05-22T09:56:13.851Z,3.20
2023-05-22T09:59:23.948Z,3.60
2023-05-22T10:02:27.845Z,3.40
2023-05-22T10:05:31.586Z,3.80
2023-05-22T10:08:41.975Z,3.30
2023-05-22T10:11:45.788Z,3.30
2023-05-22T10:14:49.364Z,3.42
2023-05-22T10:17:53.061Z,3.75
2023-05-22T10:20:57.420Z,3.72
2023-05-22T10:24:01.652Z,3.90
2023-05-22T10:27:04.268Z,3.33
2023-05-22T10:30:19.391Z,3.97
2023-05-22T10:33:31.935Z,3.80
2023-05-22T10:36:56.124Z,3.83
2023-05-22T10:40:08.200Z,3.72
2023-05-22T10:43:10.678Z,3.67
2023-05-22T10:46:13.308Z,3.65
2023-05-22T10:49:26.149Z,3.97
2023-05-22T10:52:28.808Z,3.60
2023-05-22T10:55:31.412Z,4.22
2023-05-22T10:58:38.976Z,3.67
2023-05-22T11:01:41.516Z,3.62
2023-05-22T11:04:44.316Z,3.62
2023-05-22T11:07:48.125Z,3.70
2023-05-22T11:10:55.032Z,3.75
2023-05-22T11:14:04.305Z,3.62
2023-05-22T11:17:12.082Z,4.20
2023-05-22T11:20:26.325Z,3.80
2023-05-22T11:23:28.766Z,3.65
2023-05-22T11:26:31.451Z,3.60
2023-05-22T11:29:35.155Z,3.80
2023-05-22T11:32:39.276Z,3.67
2023-05-22T11:35:44.582Z,3.67
2023-05-22T11:38:47.257Z,3.72
2023-05-22T11:41:49.547Z,3.87
2023-05-22T11:44:52.109Z,4.00
2023-05-22T11:47:54.752Z,3.83
2023-05-22T11:51:08.828Z,4.40
2023-05-22T11:54:18.495Z,4.00
2023-05-22T11:57:22.868Z,3.60
2023-05-22T12:00:27.168Z,3.70
2023-05-22T12:03:30.883Z,3.42
2023-05-22T12:06:33.791Z,3.42
2023-05-22T12:09:39.620Z,3.70
2023-05-22T12:12:44.325Z,3.87
2023-05-22T12:15:46.899Z,3.85
2023-05-22T12:18:53.928Z,3.80
2023-05-22T12:21:57.411Z,4.40
2023-05-22T12:24:59.730Z,4.25
2023-05-22T12:28:02.337Z,4.28
2023-05-22T12:31:04.682Z,3.90
2023-05-22T12:34:08.458Z,3.67
2023-05-22T12:37:28.009Z,3.87
2023-05-22T12:40:30.582Z,4.20
2023-05-22T12:43:32.896Z,4.12
2023-05-22T12:46:35.505Z,3.80
2023-05-22T12:49:37.740Z,4.43
2023-05-22T12:52:40.864Z,4.32
2023-05-22T12:55:44.172Z,4.05
2023-05-22T12:58:46.759Z,4.07
2023-05-22T13:01:48.991Z,3.97
2023-05-22T13:04:51.588Z,3.75
2023-05-22T13:07:53.924Z,4.30
2023-05-22T13:10:56.689Z,5.07
2023-05-22T13:13:58.928Z,4.45
2023-05-22T13:17:01.471Z,4.10
2023-05-22T13:20:04.434Z,3.72
2023-05-22T13:23:07.397Z,4.50
2023-05-22T13:26:09.611Z,4.25
2023-05-22T13:29:12.184Z,3.97
2023-05-22T13:32:14.857Z,3.90
2023-05-22T13:35:17.968Z,4.68
2023-05-22T13:38:20.287Z,3.87
2023-05-22T13:41:22.899Z,4.30
2023-05-22T13:44:25.746Z,5.12
2023-05-22T13:47:28.382Z,4.15
2023-05-22T13:50:30.731Z,4.05
2023-05-22T13:53:39.938Z,4.32
2023-05-22T13:56:42.407Z,4.53
2023-05-22T13:59:45.032Z,4.00
2023-05-22T14:02:47.298Z,4.40
2023-05-22T14:05:50.057Z,4.35
2023-05-22T14:08:52.246Z,4.47
2023-05-22T14:11:54.762Z,4.32
2023-05-22T14:14:57.030Z,4.18
2023-05-22T14:17:59.640Z,4.10
2023-05-22T14:21:04.029Z,4.35
2023-05-22T14:24:07.496Z,4.75
2023-05-22T14:27:10.129Z,4.00
2023-05-22T14:30:13.742Z,4.82
2023-05-22T14:33:15.987Z,4.57
2023-05-22T14:36:18.975Z,4.20
2023-05-22T14:39:21.232Z,3.72
2023-05-22T14:42:23.782Z,4.32
2023-05-22T14:45:26.007Z,4.20
2023-05-22T14:48:29.451Z,4.05
2023-05-22T14:51:31.936Z,4.43
2023-05-22T14:54:34.621Z,3.92
2023-05-22T14:57:36.801Z,4.43
2023-05-22T15:00:39.503Z,4.50
2023-05-22T15:03:41.903Z,4.65
2023-05-22T15:06:45.103Z,3.97
2023-05-22T15:09:47.381Z,4.05
2023-05-22T15:12:49.956Z,5.12
2023-05-22T15:15:52.178Z,4.18
2023-05-22T15:18:55.197Z,4.25
2023-05-22T15:22:05.843Z,4.47
2023-05-22T15:25:18.307Z,4.37
2023-05-22T15:28:21.308Z,4.05
2023-05-22T15:31:23.793Z,4.18
2023-05-22T15:34:26.122Z,4.78
2023-05-22T15:37:32.407Z,4.15
2023-05-22T15:40:34.895Z,4.53
2023-05-22T15:43:37.418Z,4.15
2023-05-22T15:46:39.616Z,4.18
2023-05-22T15:49:42.142Z,4.35
2023-05-22T15:52:44.368Z,3.70
2023-05-22T15:55:47.784Z,3.95
2023-05-22T15:58:50.318Z,3.78
2023-05-22T16:01:52.796Z,4.25
2023-05-22T16:04:55.449Z,4.43
2023-05-22T16:07:57.662Z,4.12
2023-05-22T16:11:01.665Z,4.32
2023-05-22T16:14:04.808Z,3.75
2023-05-22T16:17:07.351Z,4.07
2023-05-22T16:20:09.868Z,3.72
2023-05-22T16:23:12.297Z,3.83
2023-05-22T16:26:14.941Z,4.10
2023-05-22T16:29:20.963Z,4.15
2023-05-22T16:32:23.527Z,4.35
2023-05-22T16:35:26.044Z,3.90
2023-05-22T16:38:28.316Z,3.90
2023-05-22T16:41:30.834Z,4.22
2023-05-22T16:44:33.067Z,4.25
2023-05-22T16:47:35.593Z,4.68
2023-05-22T16:50:37.955Z,3.90
2023-05-22T16:53:41.799Z,4.35
2023-05-22T16:56:44.105Z,4.00
2023-05-22T16:59:46.804Z,4.20
2023-05-22T17:02:49.154Z,4.28
2023-05-22T17:05:51.777Z,4.28
2023-05-22T17:08:54.002Z,4.35
2023-05-22T17:11:56.518Z,4.25
2023-05-22T17:14:58.755Z,4.40
2023-05-22T17:18:01.328Z,4.28
2023-05-22T17:21:04.485Z,4.35
2023-05-22T17:24:11.631Z,4.57
2023-05-22T17:27:24.296Z,4.80
2023-05-22T17:30:34.980Z,4.68
2023-05-22T17:33:37.173Z,4.60
2023-05-22T17:36:40.634Z,4.53
2023-05-22T17:39:44.483Z,4.80
2023-05-22T17:42:47.057Z,4.72
2023-05-22T17:45:52.951Z,4.65
2023-05-22T17:48:55.625Z,4.60
2023-05-22T17:51:57.823Z,5.12
2023-05-22T17:55:00.263Z,5.28
2023-05-22T17:58:02.474Z,4.80
2023-05-22T18:01:05.250Z,5.05
2023-05-22T18:04:07.995Z,4.97
2023-05-22T18:07:10.279Z,5.30
2023-05-22T18:10:12.744Z,4.87
2023-05-22T18:13:14.943Z,4.50
2023-05-22T18:16:19.561Z,5.03
2023-05-22T18:19:21.858Z,4.62
2023-05-22T18:22:25.592Z,4.53
2023-05-22T18:25:27.807Z,5.60
2023-05-22T18:28:30.401Z,4.97
2023-05-22T18:31:32.658Z,4.97
2023-05-22T18:34:37.331Z,5.18
2023-05-22T18:37:39.539Z,5.55
2023-05-22T18:40:42.243Z,5.37
2023-05-22T18:43:44.657Z,5.60
2023-05-22T18:46:47.402Z,5.03
2023-05-22T18:49:49.626Z,5.12
2023-05-22T18:52:52.110Z,5.57
2023-05-22T18:55:54.353Z,5.60
2023-05-22T18:58:56.863Z,6.05
2023-05-22T19:01:59.038Z,6.15
2023-05-22T19:05:01.661Z,5.72
2023-05-22T19:08:05.314Z,5.75
2023-05-22T19:11:07.757Z,5.68
2023-05-22T19:14:09.975Z,5.68
2023-05-22T19:17:12.573Z,5.72
2023-05-22T19:20:15.297Z,5.30
2023-05-22T19:23:18.648Z,5.05
2023-05-22T19:26:21.053Z,5.28
2023-05-22T19:29:23.488Z,4.82
2023-05-22T19:32:25.939Z,5.10
2023-05-22T19:35:28.432Z,5.62
2023-05-22T19:38:31.085Z,4.95
2023-05-22T19:41:33.599Z,5.57
2023-05-22T19:44:35.783Z,5.65
2023-05-22T19:47:38.279Z,5.18
2023-05-22T19:50:41.407Z,5.00
2023-05-22T19:53:44.361Z,5.20
2023-05-22T19:56:46.587Z,5.07
2023-05-22T19:59:50.055Z,5.50
2023-05-22T20:02:52.283Z,5.20
2023-05-22T20:05:54.808Z,5.50
2023-05-22T20:08:57.673Z,5.20
2023-05-22T20:12:00.276Z,5.10
2023-05-22T20:15:03.864Z,5.78
2023-05-22T20:18:08.373Z,5.47
2023-05-22T20:21:10.603Z,5.37
2023-05-22T20:24:25.098Z,6.30
2023-05-22T20:27:27.318Z,5.68
2023-05-22T20:30:29.810Z,5.57
2023-05-22T20:33:32.499Z,5.75
2023-05-22T20:36:42.626Z,5.20
2023-05-22T20:39:46.351Z,5.13
2023-05-22T20:42:49.135Z,5.12
2023-05-22T20:45:51.567Z,5.20
2023-05-22T20:48:54.407Z,5.10
2023-05-22T20:51:59.877Z,5.18
2023-05-22T20:55:02.714Z,5.45
2023-05-22T20:58:04.919Z,5.30
2023-05-22T21:01:07.451Z,4.97
2023-05-22T21:04:09.802Z,5.25
2023-05-22T21:07:12.368Z,5.95
2023-05-22T21:10:14.536Z,5.05
2023-05-22T21:13:17.019Z,5.82
2023-05-22T21:16:19.254Z,6.68
2023-05-22T21:19:21.768Z,6.90
2023-05-22T21:22:23.990Z,7.30
2023-05-22T21:25:26.474Z,7.03
2023-05-22T21:28:28.847Z,6.97
2023-05-22T21:31:32.701Z,7.12
2023-05-22T21:34:36.882Z,7.10
2023-05-22T21:37:40.660Z,7.50
2023-05-22T21:40:43.171Z,6.97
2023-05-22T21:43:47.319Z,7.45
2023-05-22T21:46:49.624Z,7.20
2023-05-22T21:49:52.165Z,6.95
2023-05-22T21:52:54.308Z,6.97
2023-05-22T21:55:56.774Z,6.93
2023-05-22T21:58:59.643Z,6.75
2023-05-22T22:02:02.218Z,7.37
2023-05-22T22:05:05.353Z,7.47
2023-05-22T22:08:07.528Z,7.30
2023-05-22T22:11:09.985Z,7.50
2023-05-22T22:14:12.179Z,6.85
2023-05-22T22:17:16.601Z,7.07
2023-05-22T22:20:30.331Z,8.02
2023-05-22T22:23:42.302Z,7.85
2023-05-22T22:26:49.311Z,7.65
2023-05-22T22:29:51.822Z,7.70
2023-05-22T22:32:53.993Z,7.20
2023-05-22T22:35:56.546Z,7.43
2023-05-22T22:38:59.401Z,7.95
2023-05-22T22:42:04.942Z,8.10
2023-05-22T22:45:09.697Z,8.25
2023-05-22T22:48:12.317Z,8.00
2023-05-22T22:51:14.604Z,7.97
2023-05-22T22:54:17.667Z,7.97
2023-05-22T22:57:20.096Z,8.15
2023-05-22T23:00:22.598Z,7.75
2023-05-22T23:03:27.016Z,7.32
2023-05-22T23:06:29.773Z,8.48
2023-05-22T23:09:31.960Z,7.68
2023-05-22T23:12:36.230Z,7.93
2023-05-22T23:15:38.928Z,8.60
2023-05-22T23:18:41.649Z,7.40
2023-05-22T23:21:43.818Z,7.80
2023-05-22T23:24:46.307Z,7.40
2023-05-22T23:27:48.592Z,7.70
2023-05-22T23:30:52.462Z,7.60
2023-05-22T23:33:55.239Z,7.28
2023-05-22T23:36:57.791Z,7.45
2023-05-22T23:39:59.971Z,7.05
2023-05-22T23:43:02.420Z,7.62
2023-05-22T23:46:04.592Z,7.68
2023-05-22T23:49:07.655Z,6.60
2023-05-22T23:52:09.897Z,7.90
2023-05-22T23:55:12.360Z,7.90
2023-05-22T23:58:15.946Z,7.35
